Time;durP1;ratioP1;P1;durP2;ratioP2;P2;SDS_P1;SDS_P2;PMS_P1;PMS_P2;Temp;Humidity;BMP_temperature;BMP_pressure;BME280_temperature;BME280_humidity;BME280_pressure;Samples;Min_cycle;Max_cycle;Signal;HPM_P1;HPM_P2
2021/01/04 03:45:44;;;;;;;17.05;10.10;;;;;;;;;;5768910;23;88381;-84
2021/01/04 03:48:10;;;;;;;21.60;10.65;;;2.30;90.90;;;;;;4990398;28;86177;-86
2021/01/04 03:50:36;;;;;;;17.38;8.05;;;1.80;90.30;;;;;;4989322;28;86889;-86
2021/01/04 03:53:02;;;;;;;15.27;9.40;;;;;;;;;;4990455;28;88713;-86
2021/01/04 03:55:28;;;;;;;14.63;7.90;;;1.80;90.50;;;;;;4991439;28;89295;-86
2021/01/04 03:57:54;;;;;;;20.25;9.82;;;;;;;;;;4991352;28;86929;-84
2021/01/04 04:00:22;;;;;;;16.30;8.07;;;1.80;90.10;;;;;;4980930;28;86943;-85
2021/01/04 04:02:49;;;;;;;15.85;9.02;;;1.80;90.20;;;;;;4953793;28;88755;-85
2021/01/04 04:05:17;;;;;;;16.85;9.48;;;1.70;89.10;;;;;;4998862;28;87062;-86
2021/01/04 04:07:45;;;;;;;16.23;8.10;;;1.80;89.10;;;;;;4993883;28;86888;-86
2021/01/04 04:10:14;;;;;;;17.02;9.13;;;1.90;89.30;;;;;;4994001;28;86159;-84
2021/01/04 04:12:39;;;;;;;18.67;9.30;;;1.90;89.50;;;;;;4989919;28;86654;-83
2021/01/04 04:15:08;;;;;;;16.38;8.48;;;1.90;89.20;;;;;;4987379;28;88551;-86
2021/01/04 04:17:34;;;;;;;18.48;8.65;;;1.80;89.40;;;;;;4989658;28;87784;-86
2021/01/04 04:20:00;;;;;;;17.55;9.15;;;1.80;89.80;;;;;;5002554;28;86968;-86
2021/01/04 04:22:26;;;;;;;14.25;8.23;;;1.90;90.00;;;;;;4999858;28;88556;-83
2021/01/04 04:24:51;;;;;;;17.13;9.30;;;1.60;90.10;;;;;;4971285;28;87465;-85
2021/01/04 04:27:17;;;;;;;17.90;9.93;;;;;;;;;;4956575;28;86919;-84
2021/01/04 04:29:45;;;;;;;17.65;8.02;;;1.80;89.40;;;;;;4991963;28;86910;-84
2021/01/04 04:32:11;;;;;;;19.77;8.80;;;1.80;90.20;;;;;;4987910;28;86977;-86
2021/01/04 04:34:38;;;;;;;17.90;8.70;;;1.80;89.70;;;;;;4991230;28;87241;-85
2021/01/04 04:37:05;;;;;;;20.38;10.15;;;1.80;89.50;;;;;;4991855;28;86141;-83
2021/01/04 04:39:31;;;;;;;17.73;9.80;;;;;;;;;;4991595;28;87079;-85
2021/01/04 04:42:00;;;;;;;18.20;9.25;;;1.80;89.40;;;;;;4987658;28;87697;-85
2021/01/04 04:44:36;;;;;;;19.50;9.23;;;1.90;90.10;;;;;;4994405;28;88684;-83
2021/01/04 04:47:18;;;;;;;17.35;8.55;;;1.80;90.20;;;;;;4996207;28;86906;-84
2021/01/04 04:50:40;;;;;;;17.15;8.57;;;1.70;90.30;;;;;;5001461;28;86230;-84
2021/01/04 04:53:21;;;;;;;18.38;9.00;;;1.60;90.50;;;;;;4903443;28;86836;-83
2021/01/04 04:56:05;;;;;;;15.25;8.35;;;1.60;90.60;;;;;;4912652;28;87446;-86
2021/01/04 04:58:33;;;;;;;19.15;9.30;;;1.60;90.80;;;;;;4977213;28;86884;-84
2021/01/04 05:01:10;;;;;;;19.83;8.73;;;1.60;90.70;;;;;;5001106;28;85565;-84
2021/01/04 05:04:01;;;;;;;19.13;9.23;;;1.60;90.80;;;;;;4987607;28;87447;-83
2021/01/04 05:06:30;;;;;;;16.02;8.40;;;1.60;90.40;;;;;;4994530;28;86979;-85
2021/01/04 05:09:20;;;;;;;18.42;9.25;;;1.60;90.70;;;;;;4980235;28;88536;-85
2021/01/04 05:11:59;;;;;;;21.77;9.73;;;1.50;90.60;;;;;;4993059;28;86265;-84
2021/01/04 05:14:27;;;;;;;19.13;9.63;;;1.50;90.70;;;;;;4993058;28;87017;-85
2021/01/04 05:17:30;;;;;;;17.50;8.38;;;1.50;90.80;;;;;;4992163;28;87570;-83
2021/01/04 05:20:16;;;;;;;14.57;7.85;;;1.50;90.70;;;;;;4993970;28;86124;-85
2021/01/04 05:22:57;;;;;;;16.65;8.43;;;1.60;90.70;;;;;;4992219;28;86870;-85
2021/01/04 05:25:32;;;;;;;;;;;1.60;90.40;;;;;;4978319;28;89075;-85
2021/01/04 05:28:26;;;;;;;18.30;8.75;;;1.60;90.30;;;;;;4988241;28;88132;-85
2021/01/04 05:31:16;;;;;;;18.35;9.85;;;1.60;90.30;;;;;;4993752;28;86814;-84
2021/01/04 05:33:57;;;;;;;18.77;9.68;;;1.60;90.30;;;;;;4979934;28;86943;-84
2021/01/04 05:36:32;;;;;;;;;;;1.60;90.30;;;;;;4985943;28;87838;-86
2021/01/04 05:39:01;;;;;;;18.52;9.25;;;1.60;90.20;;;;;;4991987;28;89266;-86
2021/01/04 05:42:05;;;;;;;18.30;8.73;;;1.60;90.30;;;;;;4969064;28;87511;-85
2021/01/04 05:45:09;;;;;;;16.80;8.82;;;1.70;90.20;;;;;;4967069;28;86863;-86
2021/01/04 05:47:54;;;;;;;19.42;9.68;;;1.70;90.00;;;;;;4918379;28;88656;-84
2021/01/04 05:50:47;;;;;;;18.17;9.07;;;1.70;90.30;;;;;;4990986;28;89010;-84
2021/01/04 05:53:13;;;;;;;18.60;8.55;;;1.70;90.40;;;;;;4982620;28;86492;-86
2021/01/04 05:55:38;;;;;;;20.73;10.55;;;1.70;91.50;;;;;;4965831;28;86189;-85
2021/01/04 05:58:17;;;;;;;16.95;8.95;;;1.70;89.70;;;;;;4975433;28;90612;-86
2021/01/04 06:00:43;;;;;;;17.13;9.48;;;1.80;90.20;;;;;;4990934;28;87274;-86
2021/01/04 06:03:21;;;;;;;18.23;9.88;;;1.80;90.00;;;;;;4990174;28;87925;-86
2021/01/04 06:05:48;;;;;;;17.02;9.27;;;1.80;89.90;;;;;;4994735;28;86875;-86
2021/01/04 06:08:26;;;;;;;21.35;9.45;;;1.90;89.60;;;;;;4995057;28;87178;-86
2021/01/04 06:11:13;;;;;;;19.58;9.50;;;1.90;89.30;;;;;;4993364;28;87364;-84
2021/01/04 06:13:42;;;;;;;20.42;9.85;;;2.00;89.50;;;;;;4994275;28;86967;-84
2021/01/04 06:16:14;;;;;;;20.63;10.52;;;2.10;89.20;;;;;;4994161;28;86559;-86
2021/01/04 06:18:45;;;;;;;17.70;9.38;;;2.10;89.00;;;;;;4990701;28;86845;-84
2021/01/04 06:21:51;;;;;;;21.33;11.70;;;2.10;89.00;;;;;;4993921;28;87402;-86
2021/01/04 06:24:24;;;;;;;22.88;9.98;;;2.10;88.30;;;;;;4990506;28;86670;-85
2021/01/04 06:27:09;;;;;;;22.20;9.98;;;2.10;88.80;;;;;;4977598;28;86891;-86
2021/01/04 06:29:42;;;;;;;22.85;11.48;;;2.10;89.10;;;;;;4985584;28;88577;-85
2021/01/04 06:32:20;;;;;;;19.13;9.93;;;2.10;88.80;;;;;;4986178;28;88538;-86
2021/01/04 06:34:53;;;;;;;19.90;9.55;;;2.10;88.60;;;;;;4994763;28;86618;-85
2021/01/04 06:37:21;;;;;;;19.27;9.55;;;2.10;88.20;;;;;;4992917;28;86698;-84
2021/01/04 06:40:34;;;;;;;22.35;11.00;;;2.00;87.60;;;;;;4994524;28;87742;-85
2021/01/04 06:43:33;;;;;;;17.60;10.40;;;2.10;89.00;;;;;;4994011;28;87470;-84
2021/01/04 06:46:26;;;;;;;18.92;9.23;;;2.00;87.90;;;;;;4972980;28;88032;-86
2021/01/04 06:49:15;;;;;;;21.70;11.48;;;1.90;88.70;;;;;;4991851;28;85878;-85
2021/01/04 06:52:35;;;;;;;21.52;10.68;;;2.30;89.90;;;;;;4986051;28;87332;-85
2021/01/04 06:55:24;;;;;;;19.65;10.02;;;2.00;87.30;;;;;;4897225;28;87260;-85
2021/01/04 06:58:14;;;;;;;18.33;9.32;;;2.00;87.60;;;;;;5000923;28;87852;-86
2021/01/04 07:01:17;;;;;;;21.83;10.13;;;2.00;87.60;;;;;;4995746;28;86367;-85
2021/01/04 07:04:09;;;;;;;20.00;10.98;;;2.20;90.50;;;;;;4974409;28;87698;-84
2021/01/04 07:07:09;;;;;;;22.60;10.32;;;2.00;87.80;;;;;;4997031;28;86696;-87
2021/01/04 07:09:46;;;;;;;20.17;10.65;;;1.60;89.10;;;;;;4988615;28;86208;-86
2021/01/04 07:12:12;;;;;;;19.80;10.02;;;1.90;88.00;;;;;;4990995;28;86243;-87
2021/01/04 07:14:40;;;;;;;18.25;9.57;;;1.90;88.70;;;;;;4974278;28;87425;-86
2021/01/04 07:17:09;;;;;;;20.77;9.95;;;1.90;88.80;;;;;;4978749;28;88807;-83
2021/01/04 07:19:34;;;;;;;22.92;10.43;;;1.70;88.30;;;;;;4993127;28;86824;-85
2021/01/04 07:22:05;;;;;;;19.60;10.25;;;1.70;87.90;;;;;;4990426;28;87034;-88
2021/01/04 07:25:02;;;;;;;19.47;8.57;;;1.70;88.30;;;;;;4984586;28;88693;-86
2021/01/04 07:28:08;;;;;;;22.92;11.40;;;1.80;90.30;;;;;;4989802;28;88281;-85
2021/01/04 07:30:46;;;;;;;21.42;10.73;;;2.00;89.70;;;;;;4982458;28;87237;-85
2021/01/04 07:33:43;;;;;;;21.30;9.38;;;1.80;88.90;;;;;;4994062;28;87133;-86
2021/01/04 07:36:21;;;;;;;22.73;10.25;;;1.80;88.30;;;;;;4974606;28;87542;-85
2021/01/04 07:39:00;;;;;;;22.40;10.70;;;1.80;88.60;;;;;;4989705;28;87611;-85
2021/01/04 07:41:26;;;;;;;21.13;11.52;;;;;;;;;;4999810;28;86973;-81
2021/01/04 07:44:08;;;;;;;25.02;10.95;;;1.80;88.00;;;;;;4985601;28;85633;-84
2021/01/04 07:46:55;;;;;;;20.90;10.10;;;1.80;88.20;;;;;;4980611;28;87195;-88
2021/01/04 07:50:22;;;;;;;21.63;9.38;;;1.80;89.30;;;;;;4977357;28;87545;-83
2021/01/04 07:53:12;;;;;;;21.10;9.10;;;1.90;88.00;;;;;;4889847;28;88048;-86
2021/01/04 07:55:50;;;;;;;21.77;10.20;;;1.80;88.50;;;;;;4978753;28;87041;-84
2021/01/04 07:58:37;;;;;;;18.92;8.70;;;1.80;89.60;;;;;;4992132;28;87544;-84
2021/01/04 08:01:05;;;;;;;19.40;9.13;;;1.90;88.20;;;;;;5003934;28;88949;-86
2021/01/04 08:03:37;;;;;;;19.75;9.07;;;1.90;88.20;;;;;;4992328;28;86556;-86
2021/01/04 08:06:39;;;;;;;21.23;9.95;;;2.10;87.40;;;;;;4987771;28;86915;-86
2021/01/04 08:09:29;;;;;;;17.40;8.70;;;1.90;87.40;;;;;;4992028;28;87520;-85
2021/01/04 08:12:14;;;;;;;21.00;10.85;;;2.00;87.90;;;;;;4990878;28;87476;-86
2021/01/04 08:15:29;;;;;;;20.95;9.50;;;2.00;87.50;;;;;;4996679;28;86478;-86
2021/01/04 08:18:02;;;;;;;19.33;8.50;;;2.00;86.50;;;;;;4992078;28;86882;-85
2021/01/04 08:20:29;;;;;;;18.42;8.95;;;2.00;87.90;;;;;;4988585;28;87625;-86
2021/01/04 08:23:35;;;;;;;20.42;11.05;;;2.10;87.30;;;;;;4997814;28;88504;-86
2021/01/04 08:26:15;;;;;;;19.20;10.40;;;1.90;87.20;;;;;;4978928;28;86841;-85
2021/01/04 08:28:50;;;;;;;20.25;10.77;;;1.90;87.10;;;;;;4994016;28;86575;-85
2021/01/04 08:31:40;;;;;;;21.02;9.63;;;1.90;87.60;;;;;;4998679;28;87236;-86
2021/01/04 08:34:10;;;;;;;18.77;9.82;;;2.20;86.70;;;;;;4994077;28;86790;-85
2021/01/04 08:36:42;;;;;;;22.58;10.07;;;2.20;87.10;;;;;;4983768;28;87199;-86
2021/01/04 08:39:13;;;;;;;21.90;10.27;;;2.20;87.00;;;;;;4998467;28;85712;-85
2021/01/04 08:41:40;;;;;;;;;;;2.20;86.40;;;;;;4986261;28;86972;-85
2021/01/04 08:44:17;;;;;;;19.40;8.93;;;2.30;86.80;;;;;;4995487;28;89437;-86
2021/01/04 08:46:45;;;;;;;19.92;8.68;;;2.30;86.10;;;;;;4976752;28;87321;-86
2021/01/04 08:49:28;;;;;;;21.52;9.25;;;2.30;86.40;;;;;;4992235;28;86914;-85
2021/01/04 08:51:54;;;;;;;19.23;9.40;;;2.40;86.60;;;;;;4996576;28;88196;-86
2021/01/04 08:54:26;;;;;;;18.55;9.25;;;2.20;85.30;;;;;;4994574;28;87904;-86
2021/01/04 08:57:03;;;;;;;18.30;11.18;;;2.20;85.60;;;;;;4995256;28;86867;-86
2021/01/04 08:59:33;;;;;;;21.58;10.85;;;;;;;;;;5002068;28;86994;-86
2021/01/04 09:02:14;;;;;;;20.98;9.75;;;2.30;85.20;;;;;;4996727;28;87659;-86
2021/01/04 09:04:40;;;;;;;18.10;8.85;;;2.50;85.60;;;;;;4995511;28;87110;-85
2021/01/04 09:07:19;;;;;;;20.77;9.45;;;2.60;86.00;;;;;;4978147;28;86348;-83
2021/01/04 09:10:00;;;;;;;21.52;10.93;;;3.00;84.40;;;;;;4968607;28;87113;-84
2021/01/04 09:12:39;;;;;;;20.63;9.80;;;3.00;84.30;;;;;;4994392;28;88141;-84
2021/01/04 09:15:05;;;;;;;20.85;10.77;;;;;;;;;;4999612;28;87443;-85
2021/01/04 09:17:48;;;;;;;21.13;11.23;;;3.80;83.40;;;;;;4997042;28;86684;-85
2021/01/04 09:20:30;;;;;;;20.75;9.85;;;3.40;83.20;;;;;;4977100;28;87004;-85
2021/01/04 09:23:09;;;;;;;20.88;10.45;;;4.00;81.80;;;;;;4997698;28;87278;-84
2021/01/04 09:25:51;;;;;;;19.23;11.50;;;3.50;81.70;;;;;;4998130;28;87038;-86
2021/01/04 09:28:19;;;;;;;22.98;11.65;;;3.90;80.40;;;;;;4986339;28;87560;-85
2021/01/04 09:30:46;;;;;;;20.13;10.65;;;4.10;78.90;;;;;;4983139;28;87919;-86
2021/01/04 09:33:31;;;;;;;22.10;9.60;;;4.00;79.30;;;;;;5000146;28;87800;-85
2021/01/04 09:36:07;;;;;;;18.77;9.07;;;4.10;79.70;;;;;;5005974;28;86662;-83
2021/01/04 09:38:33;;;;;;;20.23;10.73;;;;;;;;;;5015290;28;87052;-83
2021/01/04 09:41:03;;;;;;;19.90;10.82;;;4.20;77.90;;;;;;4992343;28;86244;-84
2021/01/04 09:43:31;;;;;;;22.55;10.90;;;4.40;78.30;;;;;;5001239;28;86732;-83
2021/01/04 09:46:17;;;;;;;21.38;10.77;;;4.30;77.50;;;;;;4998441;28;87067;-83
2021/01/04 09:48:59;;;;;;;19.92;10.45;;;4.40;77.70;;;;;;4986348;28;86215;-85
2021/01/04 09:51:37;;;;;;;19.55;11.02;;;4.30;77.30;;;;;;4963618;28;87808;-84
2021/01/04 09:54:06;;;;;;;21.52;11.15;;;4.40;76.70;;;;;;4977309;28;86697;-85
2021/01/04 09:56:37;;;;;;;22.10;9.52;;;4.40;77.20;;;;;;4975690;28;86226;-85
2021/01/04 09:59:20;;;;;;;18.48;10.55;;;4.30;77.10;;;;;;4981139;28;86662;-86
2021/01/04 10:02:01;;;;;;;20.00;10.90;;;4.20;77.80;;;;;;4980661;28;86756;-86
2021/01/04 10:04:47;;;;;;;20.08;10.82;;;4.40;77.40;;;;;;4967227;28;88050;-86
2021/01/04 10:07:28;;;;;;;21.17;10.32;;;4.70;76.70;;;;;;4980680;28;88092;-85
2021/01/04 10:09:54;;;;;;;21.02;11.35;;;4.90;75.40;;;;;;4980452;28;87011;-86
2021/01/04 10:12:24;;;;;;;23.00;12.13;;;5.00;74.30;;;;;;4969011;28;89094;-86
2021/01/04 10:14:55;;;;;;;20.42;10.43;;;5.00;74.80;;;;;;4975610;28;86979;-85
2021/01/04 10:17:37;;;;;;;22.38;11.60;;;5.30;74.00;;;;;;4980888;28;87080;-85
2021/01/04 10:20:15;;;;;;;20.45;10.75;;;5.40;73.80;;;;;;4962584;28;86833;-85
2021/01/04 10:22:45;;;;;;;19.73;10.27;;;5.50;70.30;;;;;;4979490;28;86244;-86
2021/01/04 10:25:19;;;;;;;22.75;11.15;;;5.70;72.00;;;;;;4960629;28;89444;-85
2021/01/04 10:27:51;;;;;;;21.00;10.82;;;5.70;72.50;;;;;;4958495;28;88333;-85
2021/01/04 10:30:19;;;;;;;18.98;9.93;;;5.80;69.70;;;;;;4973282;28;87395;-85
2021/01/04 10:32:45;;;;;;;21.92;10.88;;;;;;;;;;4973471;28;87018;-85
2021/01/04 10:35:22;;;;;;;20.80;11.15;;;5.80;68.70;;;;;;4978044;28;86846;-86
2021/01/04 10:37:48;;;;;;;21.98;11.10;;;;;;;;;;4977234;28;87117;-86
2021/01/04 10:40:17;;;;;;;19.50;10.57;;;5.90;68.50;;;;;;4973066;28;86630;-85
2021/01/04 10:42:45;;;;;;;20.98;11.60;;;5.70;69.80;;;;;;4983385;28;86808;-86
2021/01/04 10:45:20;;;;;;;18.90;11.38;;;5.70;69.10;;;;;;4976657;28;90569;-85
2021/01/04 10:47:58;;;;;;;21.08;11.50;;;6.00;68.60;;;;;;5024390;28;86406;-83
2021/01/04 10:50:35;;;;;;;22.83;11.68;;;6.30;68.00;;;;;;5011143;28;86181;-83
2021/01/04 10:53:06;;;;;;;20.98;11.50;;;6.60;68.30;;;;;;5020173;28;86245;-84
2021/01/04 10:55:58;;;;;;;19.42;10.18;;;6.60;68.90;;;;;;5006899;28;88545;-83
2021/01/04 10:58:31;;;;;;;18.17;11.13;;;7.10;64.40;;;;;;4918231;28;89752;-84
2021/01/04 11:01:09;;;;;;;17.85;10.00;;;7.10;64.60;;;;;;4987355;28;86348;-85
2021/01/04 11:03:39;;;;;;;19.98;11.50;;;7.10;63.90;;;;;;4993616;28;86214;-82
2021/01/04 11:06:26;;;;;;;18.02;11.00;;;7.60;64.30;;;;;;4998380;28;87249;-83
2021/01/04 11:08:52;;;;;;;19.08;10.77;;;7.80;62.80;;;;;;5009137;28;87027;-85
2021/01/04 11:11:40;;;;;;;19.08;11.05;;;8.30;62.80;;;;;;4988806;28;86161;-85
2021/01/04 11:14:14;;;;;;;19.42;10.13;;;8.40;61.60;;;;;;4993165;28;86299;-85
2021/01/04 11:16:51;;;;;;;19.73;10.68;;;9.10;57.40;;;;;;5003539;28;87736;-86
2021/01/04 11:19:28;;;;;;;27.67;12.25;;;9.70;58.30;;;;;;4998969;28;86184;-86
2021/01/04 11:21:54;;;;;;;19.10;10.88;;;9.70;58.50;;;;;;4986889;28;87221;-86
2021/01/04 11:24:20;;;;;;;20.10;10.63;;;10.30;53.90;;;;;;4974236;28;86957;-87
2021/01/04 11:26:47;;;;;;;19.55;11.25;;;;;;;;;;4978466;28;89490;-88
2021/01/04 11:29:14;;;;;;;20.65;11.55;;;10.70;54.80;;;;;;4997637;28;86822;-86
2021/01/04 11:31:40;;;;;;;20.10;11.20;;;11.10;54.40;;;;;;4995516;28;86867;-86
2021/01/04 11:34:06;;;;;;;20.55;11.10;;;11.70;51.90;;;;;;4993340;28;87288;-87
2021/01/04 11:36:33;;;;;;;17.67;10.85;;;11.40;50.90;;;;;;4992041;28;87338;-88
2021/01/04 11:38:59;;;;;;;19.30;10.10;;;;;;;;;;4990260;28;87697;-88
2021/01/04 11:41:25;;;;;;;18.08;11.48;;;;;;;;;;4990538;28;86437;-89
2021/01/04 11:43:52;;;;;;;19.15;11.40;;;;;;;;;;4989984;28;87068;-87
2021/01/04 11:46:18;;;;;;;18.73;10.93;;;9.60;53.50;;;;;;4979570;28;88660;-87
2021/01/04 11:48:45;;;;;;;19.17;10.68;;;9.10;54.20;;;;;;4994590;28;88919;-87
2021/01/04 11:51:19;;;;;;;18.40;11.38;;;9.10;55.40;;;;;;4996528;28;86683;-88
2021/01/04 11:53:49;;;;;;;19.77;12.02;;;9.10;55.70;;;;;;4989682;28;86980;-87
2021/01/04 11:56:16;;;;;;;19.45;12.43;;;8.90;55.60;;;;;;4989813;28;87271;-86
2021/01/04 11:58:42;;;;;;;19.02;10.93;;;;;;;;;;4998990;28;87574;-86
2021/01/04 12:01:08;;;;;;;21.75;11.88;;;8.60;56.30;;;;;;4994086;28;86290;-85
2021/01/04 12:03:34;;;;;;;20.85;10.98;;;8.60;56.90;;;;;;4990902;28;85947;-88
2021/01/04 12:06:00;;;;;;;21.33;11.43;;;8.50;57.00;;;;;;4988302;28;87926;-87
2021/01/04 12:08:26;;;;;;;19.27;11.02;;;8.40;57.50;;;;;;4967522;28;86520;-87
2021/01/04 12:10:53;;;;;;;18.92;10.55;;;8.50;57.50;;;;;;4987367;28;87755;-87
2021/01/04 12:13:20;;;;;;;18.17;10.55;;;8.50;56.40;;;;;;4990896;28;87093;-87
2021/01/04 12:15:46;;;;;;;17.50;10.50;;;;;;;;;;4996750;28;87746;-87
2021/01/04 12:18:12;;;;;;;17.65;10.45;;;9.00;56.00;;;;;;4994693;28;87095;-85
2021/01/04 12:20:40;;;;;;;17.55;10.35;;;9.20;55.90;;;;;;4970323;28;86657;-85
2021/01/04 12:23:07;;;;;;;18.38;10.70;;;;;;;;;;4991810;28;86828;-87
2021/01/04 12:25:32;;;;;;;17.98;10.07;;;9.80;53.20;;;;;;4969442;28;90158;-86
2021/01/04 12:27:58;;;;;;;19.42;10.63;;;;;;;;;;4983046;28;86546;-89
2021/01/04 12:30:24;;;;;;;16.10;10.38;;;10.10;52.20;;;;;;4995650;28;86697;-87
2021/01/04 12:32:50;;;;;;;18.35;10.32;;;10.30;52.30;;;;;;4986102;28;87075;-88
2021/01/04 12:35:16;;;;;;;16.15;9.75;;;10.70;51.30;;;;;;4994230;28;88186;-86
2021/01/04 12:37:42;;;;;;;17.77;9.98;;;10.90;50.50;;;;;;4994505;28;87095;-88
2021/01/04 12:40:12;;;;;;;16.35;10.15;;;11.00;49.40;;;;;;4993484;28;86509;-85
2021/01/04 12:42:40;;;;;;;16.55;10.50;;;11.00;50.30;;;;;;4992351;28;86954;-86
2021/01/04 12:45:07;;;;;;;18.88;11.43;;;10.90;51.10;;;;;;4972351;28;92004;-86
2021/01/04 12:47:33;;;;;;;15.88;10.07;;;10.70;51.60;;;;;;4966510;28;88805;-89
2021/01/04 12:49:59;;;;;;;19.55;11.45;;;10.50;51.30;;;;;;4971895;28;87025;-86
2021/01/04 12:52:25;;;;;;;24.02;11.70;;;10.30;51.30;;;;;;4989205;28;86349;-87
2021/01/04 12:54:50;;;;;;;17.45;11.02;;;10.10;51.60;;;;;;4990710;28;87615;-87
2021/01/04 12:57:17;;;;;;;17.67;10.40;;;9.70;52.50;;;;;;4961651;28;87664;-86
2021/01/04 12:59:44;;;;;;;19.75;11.90;;;9.60;53.10;;;;;;4988035;28;87805;-86
2021/01/04 13:02:13;;;;;;;21.02;11.45;;;9.40;52.80;;;;;;5001293;28;86945;-87
2021/01/04 13:04:42;;;;;;;15.00;10.10;;;9.20;53.00;;;;;;4995837;28;87015;-86
2021/01/04 13:07:10;;;;;;;18.17;10.23;;;9.50;52.20;;;;;;4992150;28;86633;-89
2021/01/04 13:09:36;;;;;;;14.75;9.13;;;9.20;52.70;;;;;;4970005;28;87712;-89
2021/01/04 13:12:02;;;;;;;16.75;9.93;;;9.30;52.50;;;;;;4992823;28;86927;-89
2021/01/04 13:14:29;;;;;;;18.23;10.90;;;9.40;53.10;;;;;;4989456;28;88828;-87
2021/01/04 13:16:56;;;;;;;17.83;10.80;;;9.50;52.70;;;;;;4983548;28;86461;-89
2021/01/04 13:19:27;;;;;;;14.45;9.45;;;;;;;;;;4993027;28;86315;-89
2021/01/04 13:21:55;;;;;;;17.00;9.32;;;10.30;51.10;;;;;;4983084;28;86989;-88
2021/01/04 13:24:21;;;;;;;15.80;9.95;;;;;;;;;;4982585;28;89566;-90
2021/01/04 13:26:52;;;;;;;18.27;10.65;;;11.50;48.80;;;;;;4975446;28;87250;-87
2021/01/04 13:29:22;;;;;;;17.25;9.68;;;12.20;46.30;;;;;;4984044;28;87062;-87
2021/01/04 13:31:48;;;;;;;18.63;11.10;;;;;;;;;;4997271;28;86927;-88
2021/01/04 13:34:15;;;;;;;17.42;10.13;;;;;;;;;;5000709;28;87371;-87
2021/01/04 13:36:45;;;;;;;17.60;10.80;;;12.20;45.30;;;;;;4973266;28;89713;-88
2021/01/04 13:39:11;;;;;;;16.67;9.73;;;12.10;46.70;;;;;;4973582;28;86762;-87
2021/01/04 13:41:36;;;;;;;16.52;10.68;;;11.80;46.90;;;;;;4997643;28;86521;-87
2021/01/04 13:44:04;;;;;;;17.55;10.60;;;11.20;47.90;;;;;;4989611;28;87225;-87
2021/01/04 13:46:34;;;;;;;17.65;10.50;;;10.90;48.80;;;;;;4997667;28;86900;-87
2021/01/04 13:49:00;;;;;;;19.73;11.90;;;10.50;48.60;;;;;;5000506;28;87687;-88
2021/01/04 13:51:27;;;;;;;17.05;10.57;;;10.40;49.40;;;;;;4980297;28;86888;-87
2021/01/04 13:53:53;;;;;;;16.70;10.43;;;10.40;50.00;;;;;;4997558;28;87273;-87
2021/01/04 13:56:19;;;;;;;17.27;10.48;;;10.30;50.10;;;;;;4999753;28;87328;-88
2021/01/04 13:58:46;;;;;;;17.75;10.07;;;10.10;50.40;;;;;;4994713;28;86711;-88
2021/01/04 14:01:13;;;;;;;16.27;10.05;;;10.00;50.60;;;;;;4981325;28;87026;-88
2021/01/04 14:03:40;;;;;;;15.73;9.40;;;10.00;50.50;;;;;;4983762;28;87125;-88
2021/01/04 14:06:06;;;;;;;17.00;10.43;;;9.80;50.90;;;;;;4994749;28;87286;-85
2021/01/04 14:08:32;;;;;;;19.05;10.65;;;10.00;51.40;;;;;;4995965;28;87882;-86
2021/01/04 14:10:58;;;;;;;15.95;9.50;;;10.20;51.30;;;;;;4995722;28;87164;-85
2021/01/04 14:13:24;;;;;;;16.85;9.73;;;10.30;51.00;;;;;;4980537;28;88512;-85
2021/01/04 14:15:49;;;;;;;18.73;10.50;;;10.30;50.90;;;;;;5000486;28;86969;-85
2021/01/04 14:18:16;;;;;;;18.95;11.02;;;10.40;50.10;;;;;;5000593;28;86977;-84
2021/01/04 14:20:42;;;;;;;17.23;10.40;;;10.30;50.30;;;;;;4996486;28;86756;-85
2021/01/04 14:23:07;;;;;;;17.80;11.07;;;10.30;50.50;;;;;;4969426;28;89358;-83
2021/01/04 14:25:33;;;;;;;18.80;11.45;;;10.20;50.90;;;;;;4979308;28;90066;-86
2021/01/04 14:27:59;;;;;;;19.38;10.23;;;10.00;51.10;;;;;;4985141;28;86887;-86
2021/01/04 14:30:25;;;;;;;18.15;11.48;;;9.90;51.70;;;;;;4993747;28;86484;-86
2021/01/04 14:32:50;;;;;;;20.15;11.15;;;9.70;52.20;;;;;;4990962;28;87047;-86
2021/01/04 14:35:17;;;;;;;20.55;10.45;;;9.50;52.00;;;;;;4994450;28;87461;-86
2021/01/04 14:37:43;;;;;;;20.77;12.45;;;;;;;;;;4992884;28;87880;-87
2021/01/04 14:40:09;;;;;;;21.23;11.20;;;8.60;53.90;;;;;;4973191;28;86665;-86
2021/01/04 14:42:35;;;;;;;20.02;11.55;;;8.20;54.80;;;;;;4994195;28;87547;-86
2021/01/04 14:45:03;;;;;;;19.73;9.75;;;8.20;55.70;;;;;;5007284;28;87553;-86
2021/01/04 14:47:34;;;;;;;18.35;10.95;;;7.80;56.30;;;;;;4979213;28;86395;-86
2021/01/04 14:50:00;;;;;;;;;;;7.40;57.50;;;;;;4976114;28;86532;-86
2021/01/04 14:52:27;;;;;;;24.33;12.15;;;6.90;60.20;;;;;;4975319;28;88596;-87
2021/01/04 14:54:56;;;;;;;24.73;12.82;;;6.10;61.00;;;;;;4973195;28;87614;-87
2021/01/04 14:57:22;;;;;;;24.20;12.20;;;;;;;;;;4973609;28;87173;-87
2021/01/04 14:59:48;;;;;;;24.33;11.20;;;5.60;62.50;;;;;;4960898;28;87168;-87
2021/01/04 15:02:15;;;;;;;19.42;10.50;;;5.20;64.10;;;;;;4973134;28;88429;-86
2021/01/04 15:04:41;;;;;;;23.33;11.82;;;;;;;;;;4953828;28;89833;-86
2021/01/04 15:07:07;;;;;;;21.70;11.95;;;;;;;;;;4973539;28;87065;-87
2021/01/04 15:09:34;;;;;;;23.40;12.43;;;4.50;66.80;;;;;;4973222;28;86993;-86
2021/01/04 15:12:01;;;;;;;21.33;11.57;;;;;;;;;;4977539;28;87778;-87
2021/01/04 15:14:28;;;;;;;22.75;11.10;;;4.30;67.50;;;;;;4971836;28;87401;-88
2021/01/04 15:16:55;;;;;;;24.02;12.15;;;4.00;69.50;;;;;;4978322;28;86964;-87
2021/01/04 15:19:24;;;;;;;24.48;13.00;;;3.90;71.00;;;;;;4977037;28;85975;-86
2021/01/04 15:21:50;;;;;;;22.58;12.65;;;;;;;;;;4976475;28;87446;-87
2021/01/04 15:24:16;;;;;;;25.15;13.30;;;3.80;72.60;;;;;;4984024;28;87438;-86
2021/01/04 15:26:42;;;;;;;27.67;13.23;;;;;;;;;;4972062;28;87972;-87
2021/01/04 15:29:10;;;;;;;25.42;12.95;;;3.80;73.40;;;;;;4973287;28;86553;-86
2021/01/04 15:31:36;;;;;;;25.42;11.80;;;;;;;;;;4954769;28;88605;-87
2021/01/04 15:34:04;;;;;;;24.00;12.10;;;3.50;74.20;;;;;;4981942;28;87470;-87
2021/01/04 15:36:30;;;;;;;25.60;11.30;;;;;;;;;;4953992;28;88176;-86
2021/01/04 15:38:57;;;;;;;22.17;11.63;;;3.60;73.50;;;;;;4962166;28;87064;-87
2021/01/04 15:41:23;;;;;;;18.38;9.90;;;;;;;;;;4960916;28;87639;-87
2021/01/04 15:43:49;;;;;;;21.95;9.77;;;3.40;73.70;;;;;;4972645;28;87065;-88
2021/01/04 15:46:16;;;;;;;22.95;10.88;;;3.50;73.70;;;;;;4969627;28;86734;-86
2021/01/04 15:48:42;;;;;;;21.88;11.00;;;;;;;;;;4985583;28;86534;-86
2021/01/04 15:51:11;;;;;;;21.48;10.65;;;3.60;73.70;;;;;;4962963;28;88277;-87
2021/01/04 15:53:38;;;;;;;18.55;10.02;;;;;;;;;;4974205;28;89616;-88
2021/01/04 15:56:06;;;;;;;21.00;10.63;;;3.60;74.10;;;;;;4991034;28;86517;-88
2021/01/04 15:58:32;;;;;;;19.77;10.82;;;3.70;75.30;;;;;;4986251;28;87095;-86
2021/01/04 16:00:58;;;;;;;20.92;10.90;;;3.60;75.90;;;;;;4969472;28;87926;-87
2021/01/04 16:03:23;;;;;;;22.20;11.27;;;3.60;76.00;;;;;;4990512;28;86858;-86
2021/01/04 16:05:49;;;;;;;21.80;11.60;;;;;;;;;;4990287;28;86599;-86
2021/01/04 16:08:15;;;;;;;23.75;12.63;;;3.70;76.00;;;;;;4983921;28;86227;-84
2021/01/04 16:10:41;;;;;;;24.58;12.90;;;;;;;;;;4995596;28;86658;-83
2021/01/04 16:13:08;;;;;;;26.42;11.73;;;3.60;76.30;;;;;;4986851;28;87388;-83
2021/01/04 16:15:34;;;;;;;21.83;11.18;;;;;;;;;;4990912;28;88534;-85
2021/01/04 16:18:04;;;;;;;20.65;10.85;;;3.50;76.70;;;;;;4990801;28;86989;-85
2021/01/04 16:20:31;;;;;;;20.25;10.77;;;3.50;77.40;;;;;;4976839;28;89142;-85
2021/01/04 16:22:56;;;;;;;20.92;11.15;;;3.50;77.20;;;;;;4969044;28;87098;-85
2021/01/04 16:25:22;;;;;;;23.38;11.60;;;3.40;77.60;;;;;;4991150;28;86887;-85
2021/01/04 16:27:48;;;;;;;24.05;10.95;;;3.50;78.00;;;;;;4986519;28;86840;-83
2021/01/04 16:30:15;;;;;;;25.85;13.15;;;3.50;78.20;;;;;;4972199;28;89137;-85
2021/01/04 16:32:40;;;;;;;22.00;10.65;;;3.50;79.30;;;;;;4985749;28;88108;-83
2021/01/04 16:35:08;;;;;;;23.02;12.30;;;3.30;78.70;;;;;;4986489;28;87422;-83
2021/01/04 16:37:34;;;;;;;20.95;11.82;;;3.40;78.70;;;;;;4970849;28;88133;-85
2021/01/04 16:40:00;;;;;;;23.08;12.05;;;;;;;;;;4990474;28;88273;-85
2021/01/04 16:42:28;;;;;;;21.75;11.95;;;3.40;78.90;;;;;;4987129;28;91286;-83
2021/01/04 16:44:55;;;;;;;24.35;11.27;;;;;;;;;;4972713;28;87001;-87
2021/01/04 16:47:20;;;;;;;23.40;12.80;;;3.40;79.10;;;;;;4990907;28;88363;-87
2021/01/04 16:49:48;;;;;;;21.20;11.15;;;3.40;79.20;;;;;;4990112;28;87394;-89
2021/01/04 16:52:14;;;;;;;27.70;13.15;;;;;;;;;;4985084;28;88788;-86
2021/01/04 16:54:44;;;;;;;23.73;12.48;;;3.40;78.90;;;;;;5006698;28;86791;-88
2021/01/04 16:57:12;;;;;;;25.02;11.55;;;3.30;79.30;;;;;;4988866;28;85639;-84
2021/01/04 16:59:40;;;;;;;26.35;13.85;;;3.30;79.50;;;;;;5023866;28;87079;-85
2021/01/04 17:02:06;;;;;;;26.63;13.18;;;3.50;79.60;;;;;;4988131;28;86925;-87
2021/01/04 17:05:08;;;;;;;25.88;12.82;;;3.50;79.80;;;;;;4971909;28;87123;-88
2021/01/04 17:07:33;;;;;;;;;;;3.40;79.60;;;;;;5006417;28;86468;-88